Time;durP1;ratioP1;P1;durP2;ratioP2;P2;SDS_P1;SDS_P2;PMS_P1;PMS_P2;Temp;Humidity;BMP_temperature;BMP_pressure;BME280_temperature;BME280_humidity;BME280_pressure;Samples;Min_cycle;Max_cycle;Signal;HPM_P1;HPM_P2
2021/09/02 00:01:17;;;;;;;2.40;1.50;;;;;;;26.31;43.44;100811.40;112097;1218;65657;-83
2021/09/02 00:03:59;;;;;;;2.30;1.40;;;;;;;26.31;43.45;100818.98;112421;1221;61136;-82
2021/09/02 00:06:54;;;;;;;2.50;1.60;;;;;;;26.31;43.31;100820.77;112606;1219;61372;-89
2021/09/02 00:09:43;;;;;;;2.70;1.70;;;;;;;26.31;43.15;100818.80;112586;1222;63286;-85
2021/09/02 00:12:38;;;;;;;2.90;1.60;;;;;;;26.31;43.48;100821.17;112548;1222;65718;-91
2021/09/02 00:15:35;;;;;;;2.50;1.60;;;;;;;26.31;43.46;100823.20;112945;1218;61092;-91
2021/09/02 00:18:27;;;;;;;2.60;1.60;;;;;;;26.31;43.46;100824.42;112874;1220;61058;-85
2021/09/02 00:21:25;;;;;;;2.50;1.60;;;;;;;26.31;43.39;100821.85;112943;1216;72779;-86
2021/09/02 00:24:14;;;;;;;2.70;1.60;;;;;;;26.31;43.38;100824.05;112966;1216;73245;-87
2021/09/02 00:26:56;;;;;;;;;;;;;;;;;;;;;
2021/09/02 00:30:05;;;;;;;2.20;1.50;;;;;;;26.31;43.51;100824.21;112960;1215;61002;-90
2021/09/02 00:32:47;;;;;;;2.80;1.60;;;;;;;26.31;43.37;100822.42;112970;1218;72264;-86
2021/09/02 00:35:56;;;;;;;3.60;1.50;;;;;;;26.31;43.41;100823.27;112967;1216;74726;-87
2021/09/02 00:38:41;;;;;;;2.00;1.40;;;;;;;26.30;43.52;100827.20;112979;1217;60990;-91
2021/09/02 00:41:15;;;;;;;2.30;1.50;;;;;;;26.31;43.60;100832.73;112946;1212;61412;-94
2021/09/02 00:43:52;;;;;;;1.80;1.50;;;;;;;26.31;43.54;100827.83;112971;1215;72975;-89
2021/09/02 00:46:55;;;;;;;2.90;1.70;;;;;;;26.30;43.64;100832.57;112922;1218;74715;-84
2021/09/02 00:49:23;;;;;;;2.40;1.50;;;;;;;26.30;43.62;100832.92;112992;1216;61565;-90
2021/09/02 00:52:46;;;;;;;;;;;;;;;;;;;;;
2021/09/02 00:55:48;;;;;;;2.00;1.30;;;;;;;26.30;43.68;100838.77;112944;1216;73512;-85
2021/09/02 00:58:23;;;;;;;2.10;1.40;;;;;;;26.29;43.55;100839.73;112964;1215;65778;-90
2021/09/02 01:01:35;;;;;;;3.50;1.70;;;;;;;26.29;43.62;100838.64;112892;1219;60966;-88
2021/09/02 01:04:24;;;;;;;2.90;1.60;;;;;;;26.30;43.65;100832.86;112991;1217;61074;-81
2021/09/02 01:07:00;;;;;;;2.50;1.60;;;;;;;26.30;43.61;100828.86;112966;1219;72377;-86
2021/09/02 01:10:09;;;;;;;2.10;1.40;;;;;;;26.29;43.63;100832.68;112861;1219;74452;-89
2021/09/02 01:13:08;;;;;;;1.90;1.40;;;;;;;26.29;43.60;100843.36;112997;1216;60992;-86
2021/09/02 01:16:11;;;;;;;2.70;1.60;;;;;;;26.28;43.65;100842.68;112572;1221;61044;-84
2021/09/02 01:19:10;;;;;;;;;;;;;;;;;;;;;
2021/09/02 01:22:20;;;;;;;2.90;1.60;;;;;;;26.29;43.56;100838.31;112088;1222;74205;-87
2021/09/02 01:25:19;;;;;;;1.90;1.40;;;;;;;26.28;43.64;100844.88;111727;1225;61212;-84
2021/09/02 01:28:07;;;;;;;2.40;1.60;;;;;;;26.28;43.62;100840.73;111783;1224;61056;-86
2021/09/02 01:31:09;;;;;;;4.30;1.50;;;;;;;26.28;43.66;100843.09;111260;1231;62790;-85
2021/09/02 01:33:56;;;;;;;2.30;1.40;;;;;;;26.28;43.64;100845.59;111341;1229;74512;-88
2021/09/02 01:37:11;;;;;;;2.60;1.70;;;;;;;26.27;43.63;100846.92;110863;1228;61098;-85
2021/09/02 01:40:14;;;;;;;3.30;1.60;;;;;;;26.27;43.63;100845.33;110875;1232;61222;-83
2021/09/02 01:43:14;;;;;;;;;;;;;;;;;;;;;
2021/09/02 01:46:26;;;;;;;2.70;1.40;;;;;;;26.27;43.61;100847.31;110697;1231;74496;-86
2021/09/02 01:49:21;;;;;;;2.40;1.50;;;;;;;26.27;43.65;100837.55;110659;1232;61496;-83
2021/09/02 01:52:12;;;;;;;2.30;1.50;;;;;;;26.27;43.66;100830.17;110401;1241;62157;-85
2021/09/02 01:55:31;;;;;;;2.20;1.50;;;;;;;26.27;43.84;100832.85;110432;1240;74139;-84
2021/09/02 01:58:16;;;;;;;2.60;1.60;;;;;;;26.26;43.87;100834.02;110303;1241;65852;-86
2021/09/02 02:01:22;;;;;;;2.10;1.40;;;;;;;26.26;43.77;100836.35;110468;1232;61028;-84
2021/09/02 02:04:02;;;;;;;2.30;1.40;;;;;;;26.26;43.77;100834.55;110344;1234;61158;-83
2021/09/02 02:06:50;;;;;;;1.80;1.40;;;;;;;26.26;43.74;100829.33;110433;1240;64602;-89
2021/09/02 02:09:44;;;;;;;;;;;;;;;;;;;;;
2021/09/02 02:13:03;;;;;;;;;;;;;;;;;;;;;
2021/09/02 02:16:20;;;;;;;2.40;1.60;;;;;;;26.25;43.84;100833.56;110813;1237;61050;-87
2021/09/02 02:19:26;;;;;;;1.70;1.40;;;;;;;26.25;43.77;100829.05;110867;1229;64982;-89
2021/09/02 02:22:23;;;;;;;2.40;1.50;;;;;;;26.25;43.95;100829.28;110780;1232;66869;-84
2021/09/02 02:25:19;;;;;;;2.60;1.60;;;;;;;26.24;43.85;100827.67;110834;1229;61001;-87
2021/09/02 02:28:17;;;;;;;2.50;1.40;;;;;;;26.24;43.78;100823.16;110910;1228;60979;-85
2021/09/02 02:31:05;;;;;;;2.30;1.50;;;;;;;26.24;43.86;100829.32;110853;1229;72743;-86
2021/09/02 02:33:54;;;;;;;2.40;1.60;;;;;;;26.24;43.84;100831.52;110944;1227;65735;-88
2021/09/02 02:36:38;;;;;;;2.70;1.50;;;;;;;26.24;43.92;100831.48;111122;1232;61100;-91
2021/09/02 02:39:52;;;;;;;2.70;1.60;;;;;;;26.24;43.94;100844.87;111129;1233;61276;-88
2021/09/02 02:42:28;;;;;;;2.50;1.60;;;;;;;26.24;43.93;100843.78;111573;1225;63832;-87
2021/09/02 02:45:35;;;;;;;3.10;1.60;;;;;;;26.24;43.97;100835.67;111464;1223;66925;-83
2021/09/02 02:48:29;;;;;;;2.30;1.60;;;;;;;26.23;43.92;100836.44;111609;1224;61066;-88
2021/09/02 02:51:27;;;;;;;2.20;1.50;;;;;;;26.23;43.92;100832.65;111576;1225;61061;-88
2021/09/02 02:54:07;;;;;;;2.70;1.60;;;;;;;26.23;44.02;100836.13;111438;1222;64845;-88
2021/09/02 02:57:14;;;;;;;2.60;1.60;;;;;;;26.22;44.03;100835.07;111722;1224;64497;-85
2021/09/02 03:00:09;;;;;;;2.30;1.50;;;;;;;26.23;44.07;100828.89;111804;1225;61043;-84
2021/09/02 03:02:51;;;;;;;2.40;1.50;;;;;;;26.23;44.16;100834.71;111751;1227;61057;-83
2021/09/02 03:05:52;;;;;;;2.10;1.40;;;;;;;26.22;44.08;100837.45;112017;1224;63772;-86
2021/09/02 03:08:40;;;;;;;3.40;1.70;;;;;;;26.22;43.99;100834.02;111983;1218;66018;-86
2021/09/02 03:11:26;;;;;;;2.10;1.60;;;;;;;26.22;43.91;100827.91;111860;1228;61088;-88
2021/09/02 03:14:41;;;;;;;3.50;1.70;;;;;;;26.22;44.07;100833.36;111472;1230;61120;-86
2021/09/02 03:17:33;;;;;;;2.00;1.40;;;;;;;26.21;43.99;100837.20;111295;1229;63932;-87
2021/09/02 03:20:16;;;;;;;2.30;1.40;;;;;;;26.21;44.17;100837.72;111568;1230;66659;-84
2021/09/02 03:23:21;;;;;;;2.00;1.50;;;;;;;26.21;44.01;100839.38;111547;1231;61103;-85
2021/09/02 03:26:17;;;;;;;2.40;1.50;;;;;;;26.21;44.06;100844.77;111583;1229;61140;-86
2021/09/02 03:29:03;;;;;;;2.60;1.40;;;;;;;26.21;44.11;100843.20;111610;1221;74007;-83
2021/09/02 03:31:57;;;;;;;2.10;1.50;;;;;;;26.20;44.05;100846.64;111474;1231;65857;-86
2021/09/02 03:34:33;;;;;;;1.90;1.40;;;;;;;26.21;44.10;100854.72;111580;1230;61018;-85
2021/09/02 03:37:25;;;;;;;2.30;1.50;;;;;;;26.20;44.16;100858.57;111598;1228;61031;-85
2021/09/02 03:40:44;;;;;;;3.10;1.40;;;;;;;26.20;43.92;100852.41;111545;1229;62529;-89
2021/09/02 03:43:38;;;;;;;2.00;1.40;;;;;;;26.20;44.16;100851.70;111526;1230;74415;-85
2021/09/02 03:46:39;;;;;;;2.10;1.50;;;;;;;26.19;44.03;100856.46;111531;1228;61013;-84
2021/09/02 03:49:21;;;;;;;2.70;1.60;;;;;;;26.20;44.13;100860.59;111714;1228;61258;-85
2021/09/02 03:52:20;;;;;;;2.80;1.40;;;;;;;26.20;43.98;100866.73;111795;1228;63579;-92
2021/09/02 03:55:13;;;;;;;3.10;1.60;;;;;;;26.19;44.19;100871.10;111896;1218;64512;-93
2021/09/02 03:58:22;;;;;;;2.30;1.50;;;;;;;26.20;43.99;100874.83;111894;1221;61085;-87
2021/09/02 04:01:10;;;;;;;4.50;1.80;;;;;;;26.19;44.13;100876.51;111765;1219;61001;-88
2021/09/02 04:04:05;;;;;;;2.10;1.40;;;;;;;26.19;44.11;100881.07;111811;1221;64214;-85
2021/09/02 04:07:22;;;;;;;;;;;;;;;;;;;;;
2021/09/02 04:10:05;;;;;;;2.70;1.60;;;;;;;26.19;44.05;100875.48;111401;1231;61029;-85
2021/09/02 04:13:02;;;;;;;2.70;1.40;;;;;;;26.19;44.11;100877.05;111188;1229;60964;-88
2021/09/02 04:16:17;;;;;;;2.70;1.70;;;;;;;26.18;44.04;100876.79;111144;1225;65123;-87
2021/09/02 04:19:17;;;;;;;2.70;1.70;;;;;;;26.18;44.09;100885.27;111121;1227;64815;-86
2021/09/02 04:22:16;;;;;;;2.80;1.50;;;;;;;26.19;44.01;100886.83;111091;1226;60903;-85
2021/09/02 04:25:11;;;;;;;2.40;1.60;;;;;;;26.19;44.01;100881.23;111362;1223;61133;-90
2021/09/02 04:28:07;;;;;;;2.30;1.50;;;;;;;26.19;44.00;100886.65;111443;1231;63845;-93
2021/09/02 04:30:53;;;;;;;2.80;1.60;;;;;;;26.19;44.06;100892.05;111352;1224;66406;-87
2021/09/02 04:33:52;;;;;;;1.80;1.50;;;;;;;26.19;44.01;100891.38;111436;1230;61072;-84
2021/09/02 04:36:39;;;;;;;4.40;2.20;;;;;;;26.17;43.88;100898.88;111319;1224;60968;-85
2021/09/02 04:39:20;;;;;;;4.10;2.00;;;;;;;26.15;43.78;100902.55;111291;1225;63616;-91
2021/09/02 04:42:17;;;;;;;5.10;2.40;;;;;;;26.12;43.60;100899.17;111213;1228;65925;-87
2021/09/02 04:45:26;;;;;;;4.00;2.40;;;;;;;26.08;43.39;100902.05;110956;1234;62050;-85
2021/09/02 04:48:18;;;;;;;4.70;2.60;;;;;;;26.04;43.12;100899.67;110919;1227;61316;-87
2021/09/02 04:51:05;;;;;;;4.70;2.10;;;;;;;26.02;42.74;100893.04;110905;1226;63761;-91
2021/09/02 04:53:44;;;;;;;4.00;2.30;;;;;;;26.01;42.64;100896.77;111098;1231;74802;-87
2021/09/02 04:56:38;;;;;;;4.20;2.30;;;;;;;25.99;42.35;100904.33;111198;1230;61211;-83
2021/09/02 04:59:23;;;;;;;4.10;2.40;;;;;;;25.97;42.00;100910.02;111211;1228;61001;-86
2021/09/02 05:02:09;;;;;;;3.70;2.30;;;;;;;25.96;41.80;100912.31;111164;1223;63817;-86
2021/09/02 05:05:09;;;;;;;;;;;;;;;;;;;;;
2021/09/02 05:08:15;;;;;;;5.30;2.70;;;;;;;25.93;41.33;100923.75;110956;1234;61010;-92
2021/09/02 05:11:16;;;;;;;5.00;2.90;;;;;;;25.91;41.20;100927.38;110936;1234;61136;-87
2021/09/02 05:14:04;;;;;;;5.20;2.80;;;;;;;25.90;41.03;100933.41;111113;1229;64199;-84
2021/09/02 05:16:49;;;;;;;;;;;;;;;;;;;;;
2021/09/02 05:19:35;;;;;;;8.70;2.90;;;;;;;25.89;40.59;100933.71;111236;1230;61191;-84
2021/09/02 05:22:14;;;;;;;;;;;;;;;;;;;;;
2021/09/02 05:25:15;;;;;;;7.30;2.90;;;;;;;25.84;40.50;100934.99;112042;1223;63779;-82
2021/09/02 05:28:17;;;;;;;4.20;2.90;;;;;;;25.83;40.62;100936.52;112427;1215;65900;-85
2021/09/02 05:31:08;;;;;;;6.60;3.50;;;;;;;25.84;40.34;100935.80;112172;1224;61135;-83
2021/09/02 05:34:28;;;;;;;;;;;;;;;;;;;;;
2021/09/02 05:37:10;;;;;;;7.90;3.50;;;;;;;25.80;39.86;100929.59;112207;1224;63804;-85
2021/09/02 05:40:02;;;;;;;10.20;3.60;;;;;;;25.79;39.70;100930.25;112364;1223;66876;-84
2021/09/02 05:43:00;;;;;;;7.20;3.70;;;;;;;25.80;39.49;100930.56;112420;1216;60960;-88
2021/09/02 05:45:53;;;;;;;;;;;;;;;;;;;;;
2021/09/02 05:48:57;;;;;;;7.20;3.50;;;;;;;25.81;39.42;100930.11;112046;1224;73860;-84
2021/09/02 05:52:01;;;;;;;6.60;3.40;;;;;;;25.80;39.24;100926.59;112208;1224;66505;-84
2021/09/02 05:55:12;;;;;;;9.20;3.60;;;;;;;25.79;39.15;100926.12;112134;1223;61149;-84
2021/09/02 05:58:21;;;;;;;6.20;3.80;;;;;;;25.79;39.03;100929.91;112252;1223;61096;-87
2021/09/02 06:01:27;;;;;;;8.80;3.90;;;;;;;25.80;39.07;100929.85;112233;1224;73203;-87
2021/09/02 06:04:13;;;;;;;11.80;4.00;;;;;;;25.79;39.11;100932.77;111680;1227;65789;-88
2021/09/02 06:07:11;;;;;;;8.00;4.00;;;;;;;25.79;38.94;100936.91;111786;1220;60989;-87
2021/09/02 06:10:17;;;;;;;8.60;3.80;;;;;;;25.77;38.77;100935.46;112040;1225;61028;-85
2021/09/02 06:13:35;;;;;;;11.70;4.40;;;;;;;25.73;38.79;100935.84;112024;1224;73256;-86
2021/09/02 06:16:31;;;;;;;9.70;3.60;;;;;;;25.68;38.84;100942.42;111261;1231;75426;-90
2021/09/02 06:19:17;;;;;;;7.90;3.90;;;;;;;25.65;38.76;100943.23;111345;1231;61022;-84
2021/09/02 06:22:12;;;;;;;8.10;3.70;;;;;;;25.61;38.73;100941.41;111230;1231;61281;-84
2021/09/02 06:24:58;;;;;;;9.70;4.00;;;;;;;25.59;38.69;100942.64;111154;1224;63817;-87
2021/09/02 06:27:33;;;;;;;7.20;3.40;;;;;;;25.61;38.79;100944.84;111606;1222;75396;-84
2021/09/02 06:30:37;;;;;;;12.00;3.40;;;;;;;25.62;38.70;100949.98;111191;1224;61006;-86
2021/09/02 06:33:20;;;;;;;11.10;3.60;;;;;;;25.62;38.77;100950.11;111088;1224;61140;-86
2021/09/02 06:36:27;;;;;;;10.70;3.80;;;;;;;25.61;38.87;100953.32;111227;1231;62485;-85
2021/09/02 06:39:54;;;;;;;11.40;4.20;;;;;;;25.61;38.70;100956.75;111045;1232;73508;-86
2021/09/02 06:42:55;;;;;;;10.60;4.00;;;;;;;25.60;38.72;100959.30;111454;1230;61322;-85
2021/09/02 06:45:42;;;;;;;11.50;4.20;;;;;;;25.62;38.80;100961.14;111309;1224;61544;-82
2021/09/02 06:48:29;;;;;;;11.80;4.20;;;;;;;25.64;38.79;100964.95;111283;1230;63631;-86
2021/09/02 06:51:48;;;;;;;;;;;;;;;;;;;;;
2021/09/02 06:54:27;;;;;;;15.20;4.10;;;;;;;25.63;38.67;100970.98;111866;1224;61185;-85
2021/09/02 06:57:09;;;;;;;18.60;4.40;;;;;;;25.64;38.65;100974.33;112018;1221;60953;-87
2021/09/02 07:00:18;;;;;;;12.20;4.00;;;;;;;25.64;38.75;100978.77;111923;1223;62577;-89
2021/09/02 07:03:03;;;;;;;;;;;;;;;;;;;;;
2021/09/02 07:05:56;;;;;;;;;;;;;;;;;;;;;
2021/09/02 07:08:50;;;;;;;9.70;3.90;;;;;;;25.67;38.74;100987.88;112712;1219;61041;-85
2021/09/02 07:12:15;;;;;;;16.40;4.20;;;;;;;25.68;38.63;100991.44;112822;1212;72073;-85
2021/09/02 07:15:21;;;;;;;11.70;3.60;;;;;;;25.69;38.55;100992.80;112036;1217;74292;-84
2021/09/02 07:18:04;;;;;;;40.80;5.00;;;;;;;25.69;38.56;101003.98;112104;1222;61080;-85
2021/09/02 07:21:22;;;;;;;;;;;;;;;;;;;;;
2021/09/02 07:24:03;;;;;;;18.80;7.30;;;;;;;25.71;38.66;101010.23;112358;1216;71842;-86
2021/09/02 07:26:53;;;;;;;15.20;6.20;;;;;;;25.72;38.71;101008.72;112326;1216;74359;-88
2021/09/02 07:29:33;;;;;;;18.60;4.70;;;;;;;25.72;38.62;101012.65;112092;1225;61003;-85
2021/09/02 07:32:38;;;;;;;17.70;4.10;;;;;;;25.72;38.49;101015.23;111998;1219;61146;-90
2021/09/02 07:35:23;;;;;;;14.60;4.50;;;;;;;25.72;38.65;101019.56;112149;1216;64797;-87
2021/09/02 07:38:01;;;;;;;17.20;5.10;;;;;;;25.72;38.71;101020.98;112236;1216;65486;-85
2021/09/02 07:40:46;;;;;;;18.80;4.30;;;;;;;25.73;38.49;101025.95;111991;1219;61062;-83
2021/09/02 07:43:56;;;;;;;17.70;4.20;;;;;;;25.73;38.53;101023.64;111996;1218;61049;-90
2021/09/02 07:46:35;;;;;;;22.50;4.40;;;;;;;25.73;38.55;101026.99;112318;1216;64938;-84
2021/09/02 07:49:40;;;;;;;13.10;3.80;;;;;;;25.76;38.56;101030.23;112364;1216;75303;-84
2021/09/02 07:52:28;;;;;;;26.20;4.20;;;;;;;25.77;38.60;101036.05;112287;1216;61263;-84
2021/09/02 07:55:06;;;;;;;27.90;4.90;;;;;;;25.80;38.71;101035.06;112230;1216;62365;-83
2021/09/02 07:57:52;;;;;;;17.90;4.10;;;;;;;25.82;38.81;101034.16;112260;1216;63699;-87
2021/09/02 08:00:38;;;;;;;11.90;3.40;;;;;;;25.84;38.78;101036.39;112352;1214;66762;-83
2021/09/02 08:03:26;;;;;;;10.90;3.40;;;;;;;25.85;38.58;101036.30;112189;1216;60805;-83
2021/09/02 08:05:57;;;;;;;12.20;3.80;;;;;;;25.84;38.47;101040.29;112109;1222;60930;-83
2021/09/02 08:08:43;;;;;;;19.20;3.90;;;;;;;25.86;38.40;101043.25;112176;1218;62606;-83
2021/09/02 08:11:29;;;;;;;8.20;3.30;;;;;;;25.86;38.33;101037.60;112392;1216;65706;-86
2021/09/02 08:14:01;;;;;;;11.10;3.60;;;;;;;25.88;38.30;101041.92;112377;1216;60969;-87
2021/09/02 08:17:07;;;;;;;;;;;;;;;;;;;;;
2021/09/02 08:19:33;;;;;;;25.90;6.60;;;;;;;25.84;38.09;101037.98;111977;1217;64906;-83
2021/09/02 08:22:29;;;;;;;20.90;5.00;;;;;;;25.77;37.93;101035.17;111896;1224;67124;-82
2021/09/02 08:25:14;;;;;;;22.20;5.10;;;;;;;25.68;37.83;101028.92;111892;1224;61099;-82
2021/09/02 08:27:45;;;;;;;24.50;5.20;;;;;;;25.64;37.94;101029.80;111697;1219;60855;-82
2021/09/02 08:30:13;;;;;;;21.90;4.60;;;;;;;25.64;37.94;101031.96;112909;1216;73734;-81
2021/09/02 08:32:46;;;;;;;12.40;4.10;;;;;;;25.64;37.96;101028.70;112131;1219;74224;-82
2021/09/02 08:35:20;;;;;;;9.90;3.70;;;;;;;25.65;37.87;101030.65;112008;1216;61017;-81
2021/09/02 08:37:51;;;;;;;7.30;3.40;;;;;;;25.62;37.76;101029.29;111988;1217;61186;-82
2021/09/02 08:40:29;;;;;;;8.60;3.40;;;;;;;25.59;37.73;101029.83;112144;1224;72177;-81
2021/09/02 08:43:04;;;;;;;6.00;2.60;;;;;;;25.62;37.66;101024.23;111883;1219;74317;-83
2021/09/02 08:45:39;;;;;;;6.60;2.50;;;;;;;25.64;37.62;101022.45;112039;1216;60994;-84
2021/09/02 08:48:48;;;;;;;8.50;2.40;;;;;;;25.62;37.49;101019.92;112281;1216;61208;-84
2021/09/02 08:51:40;;;;;;;9.30;2.70;;;;;;;25.57;37.20;101021.80;112288;1216;74246;-85
2021/09/02 08:54:26;;;;;;;7.40;2.40;;;;;;;25.55;37.15;101022.63;112066;1217;75238;-82
2021/09/02 08:57:15;;;;;;;4.10;2.20;;;;;;;25.48;37.26;101024.34;111783;1225;61165;-82
2021/09/02 09:00:10;;;;;;;18.20;3.00;;;;;;;25.47;37.18;101017.95;111937;1219;61347;-82
2021/09/02 09:02:55;;;;;;;7.60;2.50;;;;;;;25.46;37.16;101013.89;112000;1225;72920;-82
2021/09/02 09:05:38;;;;;;;13.10;2.50;;;;;;;25.48;37.14;101021.09;111819;1218;66055;-82
2021/09/02 09:08:09;;;;;;;13.00;2.60;;;;;;;25.54;37.01;101025.64;111783;1218;61108;-82
2021/09/02 09:10:35;;;;;;;9.90;2.50;;;;;;;25.56;36.94;101023.45;111677;1218;61008;-82
2021/09/02 09:13:09;;;;;;;7.40;2.60;;;;;;;25.57;37.00;101019.95;111865;1219;61307;-86
2021/09/02 09:15:43;;;;;;;9.00;2.80;;;;;;;25.59;36.95;101023.89;111815;1225;74712;-85
2021/09/02 09:18:28;;;;;;;8.90;2.50;;;;;;;25.63;37.15;101023.09;111844;1217;62320;-82
2021/09/02 09:21:08;;;;;;;11.00;2.50;;;;;;;25.66;37.25;101022.59;111777;1224;60949;-84
2021/09/02 09:23:58;;;;;;;14.40;2.40;;;;;;;25.68;37.10;101026.91;111772;1217;73435;-82
2021/09/02 09:26:46;;;;;;;11.80;2.30;;;;;;;25.70;37.21;101025.65;111481;1218;73322;-83
2021/09/02 09:29:18;;;;;;;11.30;2.30;;;;;;;25.72;37.18;101026.56;111474;1225;62848;-82
2021/09/02 09:31:49;;;;;;;4.90;2.10;;;;;;;25.73;36.92;101028.99;111523;1225;61124;-82
2021/09/02 09:34:18;;;;;;;12.00;2.10;;;;;;;25.71;36.79;101029.34;111631;1216;65142;-82
2021/09/02 09:36:59;;;;;;;8.60;1.60;;;;;;;25.70;36.83;101026.55;112366;1213;65879;-83
2021/09/02 09:39:37;;;;;;;7.10;3.00;;;;;;;25.69;36.75;101028.28;112199;1219;60958;-89
2021/09/02 09:42:19;;;;;;;11.50;8.10;;;;;;;25.66;36.48;101029.83;112288;1216;60969;-82
2021/09/02 09:44:51;;;;;;;8.70;3.20;;;;;;;25.62;36.39;101027.44;112151;1219;64978;-84
2021/09/02 09:47:18;;;;;;;14.30;7.00;;;;;;;25.59;35.99;101027.89;112223;1216;75496;-82
2021/09/02 09:50:09;;;;;;;12.40;5.60;;;;;;;25.56;36.00;101027.63;112144;1216;60956;-83
2021/09/02 09:52:55;;;;;;;7.20;4.20;;;;;;;25.52;35.84;101028.45;112378;1216;60955;-83
2021/09/02 09:55:54;;;;;;;8.00;2.90;;;;;;;25.49;35.72;101024.85;111856;1218;71365;-83
2021/09/02 09:58:46;;;;;;;10.40;3.20;;;;;;;25.42;35.58;101028.26;111792;1218;75780;-83
2021/09/02 10:01:29;;;;;;;10.40;3.60;;;;;;;25.43;35.65;101026.56;111875;1225;60972;-83
2021/09/02 10:04:14;;;;;;;6.90;2.60;;;;;;;25.44;35.63;101028.86;111692;1219;59870;-82
2021/09/02 10:06:49;;;;;;;5.80;2.30;;;;;;;25.45;35.58;101036.15;111804;1218;72367;-83
2021/09/02 10:09:33;;;;;;;6.40;2.50;;;;;;;25.45;35.41;101036.35;111735;1226;74426;-82
2021/09/02 10:12:34;;;;;;;8.70;4.20;;;;;;;25.41;35.36;101036.82;111724;1226;61058;-85
2021/09/02 10:15:21;;;;;;;6.40;2.90;;;;;;;25.37;35.31;101037.58;111938;1225;61128;-83
2021/09/02 10:18:36;;;;;;;4.90;2.30;;;;;;;25.33;35.19;101037.83;111884;1218;63184;-82
2021/09/02 10:21:09;;;;;;;5.50;2.00;;;;;;;25.38;35.22;101040.55;111554;1228;74154;-83
2021/09/02 10:23:47;;;;;;;6.20;2.10;;;;;;;25.42;35.33;101044.11;111446;1221;61190;-82
2021/09/02 10:26:51;;;;;;;4.00;1.90;;;;;;;25.46;35.42;101047.53;111517;1221;60994;-82
2021/09/02 10:29:44;;;;;;;8.30;2.00;;;;;;;25.37;35.40;101049.95;110919;1232;73403;-84
2021/09/02 10:32:28;;;;;;;6.80;2.10;;;;;;;25.37;35.53;101055.73;111859;1224;74355;-81
2021/09/02 10:35:09;;;;;;;6.50;1.90;;;;;;;25.41;35.73;101054.08;112383;1221;58884;-81
2021/09/02 10:37:55;;;;;;;7.20;2.10;;;;;;;25.48;35.71;101053.53;111576;1221;61022;-84
2021/09/02 10:40:26;;;;;;;10.80;2.50;;;;;;;25.54;35.89;101053.39;110853;1225;64708;-82
2021/09/02 10:43:00;;;;;;;11.00;2.60;;;;;;;25.58;35.91;101053.88;110767;1227;66959;-82
2021/09/02 10:45:40;;;;;;;7.00;2.10;;;;;;;25.63;35.96;101056.38;110784;1227;61152;-82
2021/09/02 10:48:36;;;;;;;6.30;2.20;;;;;;;25.66;35.95;101062.09;110815;1227;61522;-83
2021/09/02 10:51:36;;;;;;;18.10;2.60;;;;;;;25.68;35.92;101065.68;110887;1227;64953;-82
2021/09/02 10:54:25;;;;;;;7.20;2.10;;;;;;;25.70;35.99;101070.16;110829;1227;65604;-82
2021/09/02 10:56:55;;;;;;;;;;;;;;;25.73;35.98;101075.48;110834;1227;61313;-82
2021/09/02 10:59:49;;;;;;;8.00;2.10;;;;;;;25.72;36.01;101081.55;111219;1218;61043;-81
2021/09/02 11:02:27;;;;;;;9.10;2.20;;;;;;;25.74;36.04;101087.52;111660;1218;73439;-82
2021/09/02 11:05:20;;;;;;;8.20;2.30;;;;;;;25.76;36.03;101088.41;111523;1220;74802;-82
2021/09/02 11:07:54;;;;;;;7.90;2.20;;;;;;;25.78;36.06;101088.30;111598;1228;61067;-84
2021/09/02 11:10:40;;;;;;;8.20;2.40;;;;;;;25.79;36.27;101091.41;111751;1221;61114;-81
2021/09/02 11:13:30;;;;;;;8.50;2.50;;;;;;;25.81;36.17;101091.60;111698;1220;72854;-89
2021/09/02 11:16:15;;;;;;;5.30;2.10;;;;;;;25.82;36.15;101085.60;111731;1228;66683;-87
2021/09/02 11:19:01;;;;;;;7.40;2.90;;;;;;;25.83;36.20;101084.18;112169;1215;61277;-83
2021/09/02 11:21:36;;;;;;;7.70;2.20;;;;;;;25.83;36.25;101075.19;111718;1218;60962;-82
2021/09/02 11:24:05;;;;;;;6.80;2.20;;;;;;;25.82;36.21;101064.98;112699;1218;72844;-81
2021/09/02 11:26:42;;;;;;;7.10;2.30;;;;;;;25.82;36.06;101073.81;111860;1217;74766;-82
2021/09/02 11:29:28;;;;;;;6.00;2.10;;;;;;;25.81;36.11;101063.49;111995;1218;60833;-83
2021/09/02 11:32:06;;;;;;;7.40;2.30;;;;;;;25.81;35.86;101066.23;111777;1218;61040;-87
2021/09/02 11:34:51;;;;;;;4.10;2.10;;;;;;;25.83;36.05;101070.89;111949;1217;73859;-84
2021/09/02 11:37:37;;;;;;;5.40;2.30;;;;;;;25.83;35.87;101073.20;111959;1219;65922;-85
2021/09/02 11:40:44;;;;;;;4.70;2.00;;;;;;;25.83;35.83;101078.11;112096;1225;61028;-88
2021/09/02 11:43:24;;;;;;;4.70;1.90;;;;;;;25.82;35.70;101081.83;112180;1214;61310;-82
2021/09/02 11:46:05;;;;;;;;;;;;;;;;;;;;;
2021/09/02 11:49:07;;;;;;;3.00;2.10;;;;;;;25.81;35.69;101075.02;112323;1216;75117;-82
2021/09/02 11:52:03;;;;;;;3.10;2.20;;;;;;;25.80;35.60;101073.54;112337;1216;61130;-84
2021/09/02 11:54:52;;;;;;;3.40;2.00;;;;;;;25.80;35.55;101067.71;112413;1216;61595;-87
2021/09/02 11:58:18;;;;;;;8.10;2.20;;;;;;;25.80;35.42;101071.00;112258;1224;71081;-86
2021/09/02 12:01:08;;;;;;;9.20;2.10;;;;;;;25.78;35.46;101067.87;112711;1213;74281;-85
2021/09/02 12:04:04;;;;;;;30.30;3.90;;;;;;;25.79;35.43;101065.63;112782;1213;60962;-89
2021/09/02 12:06:53;;;;;;;26.90;3.40;;;;;;;25.80;35.27;101063.80;112096;1219;60972;-87
2021/09/02 12:10:01;;;;;;;10.90;2.60;;;;;;;25.80;35.32;101062.11;111982;1219;72751;-88
2021/09/02 12:12:58;;;;;;;;;;;;;;;;;;;;;
2021/09/02 12:16:22;;;;;;;38.00;4.00;;;;;;;25.80;35.33;101056.57;111720;1228;61010;-84
2021/09/02 12:19:11;;;;;;;6.70;2.60;;;;;;;25.81;35.35;101062.24;111734;1228;61151;-86
2021/09/02 12:22:34;;;;;;;5.80;2.10;;;;;;;25.81;35.13;101051.77;111753;1228;72269;-90
2021/09/02 12:25:34;;;;;;;4.00;2.10;;;;;;;25.80;35.14;101056.00;111725;1222;75346;-84
2021/09/02 12:28:53;;;;;;;4.70;2.10;;;;;;;25.81;35.15;101058.26;111701;1228;60991;-88
2021/09/02 12:32:00;;;;;;;4.40;2.20;;;;;;;25.82;35.24;101058.13;111810;1227;61017;-84
2021/09/02 12:34:54;;;;;;;4.60;2.00;;;;;;;25.84;35.24;101059.41;111846;1220;64395;-87
2021/09/02 12:37:55;;;;;;;5.60;2.30;;;;;;;25.85;35.21;101057.88;111729;1221;66665;-87
2021/09/02 12:40:35;;;;;;;3.80;2.20;;;;;;;25.87;35.39;101062.79;111663;1221;61114;-80
2021/09/02 12:43:28;;;;;;;5.50;2.20;;;;;;;25.88;35.39;101065.58;111698;1218;61005;-89
2021/09/02 12:46:13;;;;;;;;;;;;;;;;;;;;;
2021/09/02 12:48:48;;;;;;;7.30;2.40;;;;;;;25.90;35.53;101065.59;111845;1221;75543;-85
2021/09/02 12:51:34;;;;;;;8.90;2.20;;;;;;;25.90;35.52;101063.55;112744;1221;60984;-86
2021/09/02 12:54:11;;;;;;;5.10;2.10;;;;;;;25.91;35.59;101065.09;112516;1222;60981;-84
2021/09/02 12:57:07;;;;;;;7.20;2.10;;;;;;;25.92;35.73;101065.19;112464;1216;63436;-83
2021/09/02 13:00:07;;;;;;;5.30;2.30;;;;;;;25.91;35.53;101066.51;112407;1219;66392;-84
2021/09/02 13:02:43;;;;;;;14.90;3.00;;;;;;;25.92;35.51;101064.88;112327;1214;61074;-82
2021/09/02 13:05:31;;;;;;;11.70;2.60;;;;;;;25.93;35.52;101061.90;112173;1216;61124;-82
2021/09/02 13:08:10;;;;;;;11.10;2.90;;;;;;;25.94;35.52;101062.48;112244;1216;65663;-82
2021/09/02 13:10:50;;;;;;;13.30;3.00;;;;;;;25.96;35.29;101062.71;112210;1214;64945;-84
2021/09/02 13:13:57;;;;;;;14.40;3.20;;;;;;;25.98;35.40;101066.88;112453;1222;61174;-83
2021/09/02 13:16:37;;;;;;;;;;;;;;;;;;;;;
2021/09/02 13:19:38;;;;;;;14.20;2.70;;;;;;;26.01;35.40;101070.97;112914;1219;72361;-88
2021/09/02 13:22:43;;;;;;;;;;;;;;;;;;;;;
2021/09/02 13:25:28;;;;;;;12.20;2.60;;;;;;;26.02;35.48;101076.27;112958;1218;61004;-87
2021/09/02 13:28:13;;;;;;;10.00;2.70;;;;;;;26.03;35.39;101072.02;112630;1210;61644;-86
2021/09/02 13:31:09;;;;;;;13.70;3.00;;;;;;;26.04;35.41;101072.66;112804;1219;73348;-86
2021/09/02 13:34:18;;;;;;;10.20;3.20;;;;;;;26.04;35.59;101068.70;112696;1213;66518;-83
2021/09/02 13:37:20;;;;;;;;;;;;;;;;;;;;;
2021/09/02 13:40:27;;;;;;;12.00;2.50;;;;;;;26.05;35.63;101068.55;111864;1217;61019;-89